Time;durP1;ratioP1;P1;durP2;ratioP2;P2;SDS_P1;SDS_P2;PMS_P1;PMS_P2;Temp;Humidity;BMP_temperature;BMP_pressure;BME280_temperature;BME280_humidity;BME280_pressure;Samples;Min_cycle;Max_cycle;Signal;HPM_P1;HPM_P2
2022/09/25 00:02:08;;;;;;;13.38;12.13;;;;;;;11.71;74.99;100693.94;7399138;19;20525;-67
2022/09/25 00:04:39;;;;;;;13.95;11.63;;;;;;;11.71;75.03;100699.22;7395110;19;20086;-64
2022/09/25 00:07:08;;;;;;;13.13;11.73;;;;;;;11.71;74.95;100694.84;7399965;19;20082;-66
2022/09/25 00:09:36;;;;;;;12.60;11.30;;;;;;;11.70;74.95;100689.59;7398371;19;20036;-66
2022/09/25 00:12:05;;;;;;;12.80;11.50;;;;;;;11.72;74.91;100698.31;7399221;19;20024;-65
2022/09/25 00:14:33;;;;;;;14.15;10.68;;;;;;;11.72;75.00;100693.06;7396920;19;20035;-65
2022/09/25 00:17:02;;;;;;;12.77;11.40;;;;;;;11.72;75.00;100698.31;7396576;19;20078;-66
2022/09/25 00:22:14;;;;;;;12.32;11.02;;;;;;;11.70;74.87;100700.09;7398775;19;20517;-66
2022/09/25 00:24:42;;;;;;;12.93;11.63;;;;;;;11.70;74.85;100700.09;7398730;19;20078;-67
2022/09/25 00:27:11;;;;;;;13.70;11.52;;;;;;;11.70;74.95;100698.34;7399259;19;20040;-68
2022/09/25 00:29:41;;;;;;;13.07;11.52;;;;;;;11.71;74.80;100693.94;7398048;19;20018;-66
2022/09/25 00:32:31;;;;;;;14.70;11.77;;;;;;;11.70;75.02;100698.34;7398761;19;20015;-66
2022/09/25 00:34:59;;;;;;;11.88;10.68;;;;;;;11.71;74.89;100693.94;7396541;19;20082;-65
2022/09/25 00:37:32;;;;;;;12.63;11.32;;;;;;;11.72;74.91;100693.06;7398193;19;20505;-65
2022/09/25 00:40:01;;;;;;;13.02;11.73;;;;;;;11.72;74.93;100686.00;7397026;19;20095;-67
2022/09/25 00:42:29;;;;;;;12.75;11.40;;;;;;;11.72;75.11;100683.38;7398391;19;20031;-64
2022/09/25 00:45:00;;;;;;;13.35;11.20;;;;;;;11.72;75.07;100688.66;7396488;19;20015;-64
2022/09/25 00:47:37;;;;;;;13.05;11.75;;;;;;;11.72;75.28;100686.00;7396704;19;20074;-67
2022/09/25 00:50:24;;;;;;;12.23;10.88;;;;;;;11.73;75.06;100677.22;7396116;19;20028;-64
2022/09/25 00:52:58;;;;;;;11.68;10.57;;;;;;;11.74;74.93;100686.00;7397831;19;20509;-65
2022/09/25 00:55:27;;;;;;;12.57;11.32;;;;;;;11.75;75.00;100677.19;7396787;19;20007;-64
2022/09/25 00:57:58;;;;;;;12.52;11.30;;;;;;;11.75;75.01;100677.19;7397750;19;20077;-65
2022/09/25 01:00:27;;;;;;;13.48;11.80;;;;;;;11.75;75.17;100677.19;7395944;19;20096;-65
2022/09/25 01:02:57;;;;;;;17.08;12.65;;;;;;;11.75;75.17;100669.31;7397560;19;20031;-65
2022/09/25 01:05:30;;;;;;;14.60;12.95;;;;;;;11.75;75.07;100677.19;7396216;19;20074;-66
2022/09/25 01:08:05;;;;;;;17.45;13.75;;;;;;;11.74;75.05;100675.47;7397561;19;20021;-65
2022/09/25 01:10:34;;;;;;;17.67;14.40;;;;;;;11.73;75.12;100679.00;7395926;19;20037;-66
2022/09/25 01:13:03;;;;;;;15.70;14.02;;;;;;;11.73;75.12;100679.88;7398066;19;20011;-63
2022/09/25 01:15:40;;;;;;;16.77;13.75;;;;;;;11.73;75.02;100673.75;7395706;19;20078;-65
2022/09/25 01:18:21;;;;;;;18.70;14.02;;;;;;;11.72;75.20;100672.03;7397646;19;20110;-64
2022/09/25 01:21:03;;;;;;;14.40;12.95;;;;;;;11.71;75.32;100671.19;7395367;19;20074;-65
2022/09/25 01:23:58;;;;;;;14.13;12.40;;;;;;;11.69;75.45;100669.47;7395622;19;20015;-65
2022/09/25 01:26:56;;;;;;;13.68;12.32;;;;;;;11.68;75.27;100673.03;7393923;19;20422;-65
2022/09/25 01:29:32;;;;;;;14.95;13.13;;;;;;;11.66;75.25;100670.41;7396370;19;20066;-65
2022/09/25 01:32:06;;;;;;;15.50;13.05;;;;;;;11.66;75.43;100666.94;7396384;19;20074;-65
2022/09/25 01:34:53;;;;;;;14.02;12.52;;;;;;;11.65;75.44;100659.94;7396019;19;20427;-65
2022/09/25 01:37:28;;;;;;;15.40;13.55;;;;;;;11.65;75.37;100665.22;7397130;19;20087;-65
2022/09/25 01:40:07;;;;;;;15.50;13.85;;;;;;;11.65;75.58;100660.84;7394984;19;20014;-65
2022/09/25 01:42:42;;;;;;;17.60;15.10;;;;;;;11.65;75.56;100657.31;7396818;19;20102;-65
2022/09/25 01:45:19;;;;;;;15.20;13.57;;;;;;;11.66;75.53;100672.19;7394433;19;20489;-65
2022/09/25 01:47:52;;;;;;;15.85;13.35;;;;;;;11.65;75.64;100658.22;7396635;19;20082;-65
2022/09/25 01:50:33;;;;;;;14.70;13.27;;;;;;;11.65;75.80;100659.94;7393622;19;20078;-65
2022/09/25 01:53:14;;;;;;;14.40;12.95;;;;;;;11.65;75.68;100659.94;7394749;19;20093;-65
2022/09/25 01:55:49;;;;;;;15.00;13.43;;;;;;;11.65;75.67;100663.47;7394300;19;20152;-65
2022/09/25 01:58:24;;;;;;;15.18;13.52;;;;;;;11.65;75.75;100667.84;7396040;19;20074;-64
2022/09/25 02:01:00;;;;;;;15.35;13.75;;;;;;;11.65;75.81;100670.47;7394132;19;20019;-65
2022/09/25 02:03:34;;;;;;;14.98;13.45;;;;;;;11.65;75.81;100665.22;7395784;19;20419;-65
2022/09/25 02:06:06;;;;;;;15.10;13.60;;;;;;;11.65;76.00;100662.56;7394380;19;20077;-65
2022/09/25 02:08:38;;;;;;;14.45;12.88;;;;;;;11.65;75.96;100660.84;7395199;19;20579;-64
2022/09/25 02:11:08;;;;;;;14.38;12.45;;;;;;;11.65;75.87;100654.69;7395808;19;20097;-65
2022/09/25 02:13:43;;;;;;;13.90;12.43;;;;;;;11.65;76.07;100657.31;7394141;19;20018;-65
2022/09/25 02:16:18;;;;;;;15.70;12.27;;;;;;;11.63;76.14;100657.38;7393993;19;20018;-65
2022/09/25 02:21:38;;;;;;;14.10;12.55;;;;;;;11.62;76.10;100655.63;7395422;19;20044;-65
2022/09/25 02:24:16;;;;;;;14.55;13.20;;;;;;;11.63;76.19;100656.53;7395480;19;20027;-65
2022/09/25 02:26:44;;;;;;;13.75;12.35;;;;;;;11.62;76.11;100658.28;7393096;19;20504;-65
2022/09/25 02:29:14;;;;;;;13.55;11.80;;;;;;;11.61;76.15;100655.69;7401869;19;20023;-65
2022/09/25 02:31:49;;;;;;;13.13;11.77;;;;;;;11.57;76.24;100655.78;7402179;19;20347;-65
2022/09/25 02:34:18;;;;;;;14.70;13.30;;;;;;;11.57;76.35;100657.53;7402644;19;20077;-66
2022/09/25 02:36:46;;;;;;;16.42;13.05;;;;;;;11.56;76.32;100661.06;7402311;19;20078;-65
2022/09/25 02:39:19;;;;;;;15.52;13.93;;;;;;;11.53;76.50;100656.75;7401440;19;20035;-65
2022/09/25 02:42:15;;;;;;;14.75;13.25;;;;;;;11.49;76.58;100657.75;7399189;19;20504;-66
2022/09/25 02:44:56;;;;;;;14.48;13.00;;;;;;;11.47;76.78;100656.91;7402919;19;20015;-65
2022/09/25 02:47:35;;;;;;;15.73;13.38;;;;;;;11.46;76.80;100656.97;7401996;19;20501;-65
2022/09/25 02:50:14;;;;;;;15.23;12.40;;;;;;;11.46;76.89;100656.97;7398451;19;20086;-65
2022/09/25 02:52:51;;;;;;;14.43;12.93;;;;;;;11.43;76.85;100650.03;7401713;19;20074;-65
2022/09/25 02:55:27;;;;;;;15.52;12.65;;;;;;;11.41;77.00;100646.56;7399563;19;20077;-65
2022/09/25 02:58:00;;;;;;;15.00;12.45;;;;;;;11.39;77.11;100651.88;7402275;19;20022;-65
2022/09/25 03:00:30;;;;;;;14.15;12.13;;;;;;;11.38;77.13;100651.91;7399188;19;20034;-65
2022/09/25 03:03:02;;;;;;;14.65;13.15;;;;;;;11.37;77.33;100647.56;7401547;19;20019;-65
2022/09/25 03:05:32;;;;;;;14.00;12.57;;;;;;;11.36;77.20;100649.34;7398434;19;20484;-65
2022/09/25 03:10:45;;;;;;;28.70;21.85;;;;;;;11.34;77.37;100642.41;7399035;19;20018;-65
2022/09/25 03:13:18;;;;;;;15.57;13.98;;;;;;;11.32;77.70;100644.19;7401058;19;20481;-65
2022/09/25 03:15:50;;;;;;;15.13;13.63;;;;;;;11.30;77.57;100641.63;7398628;19;20090;-65
2022/09/25 03:18:21;;;;;;;13.98;12.55;;;;;;;11.29;77.55;100637.25;7401232;19;20375;-65
2022/09/25 03:20:50;;;;;;;13.93;12.55;;;;;;;11.28;77.78;100639.94;7398166;19;20420;-64
2022/09/25 03:23:18;;;;;;;15.13;13.50;;;;;;;11.27;77.81;100643.47;7400990;19;20022;-65
2022/09/25 03:25:47;;;;;;;15.13;12.85;;;;;;;11.24;77.84;100639.16;7400596;19;20019;-65
2022/09/25 03:28:16;;;;;;;14.35;12.90;;;;;;;11.23;77.96;100637.41;7400944;19;20042;-65
2022/09/25 03:30:44;;;;;;;14.18;12.82;;;;;;;11.23;78.08;100632.16;7398391;19;20078;-65
2022/09/25 03:33:16;;;;;;;13.93;12.43;;;;;;;11.21;78.14;100632.22;7400208;19;20028;-66
2022/09/25 03:35:47;;;;;;;16.60;13.10;;;;;;;11.20;78.11;100632.25;7397942;19;20350;-67
2022/09/25 03:38:15;;;;;;;14.70;13.15;;;;;;;11.19;78.20;100634.00;7398973;19;20505;-67
2022/09/25 03:40:44;;;;;;;15.00;13.50;;;;;;;11.17;78.17;100630.59;7396669;19;20090;-69
2022/09/25 03:43:12;;;;;;;13.63;12.20;;;;;;;11.17;78.29;100633.22;7400114;19;20018;-64
2022/09/25 03:45:43;;;;;;;15.02;13.25;;;;;;;11.15;78.36;100635.00;7400366;19;20022;-64
2022/09/25 03:48:11;;;;;;;15.50;13.82;;;;;;;11.17;78.42;100621.81;7400697;19;20085;-65
2022/09/25 03:50:40;;;;;;;15.63;13.27;;;;;;;11.16;78.63;100625.34;7396727;19;20070;-65
2022/09/25 03:53:11;;;;;;;15.45;13.85;;;;;;;11.15;78.67;100623.66;7399601;19;20484;-65
2022/09/25 03:55:40;;;;;;;14.43;12.75;;;;;;;11.14;78.68;100617.50;7399154;19;20088;-65
2022/09/25 03:58:09;;;;;;;18.35;14.75;;;;;;;11.14;78.79;100616.66;7399504;19;20032;-66
2022/09/25 04:00:38;;;;;;;15.25;13.70;;;;;;;11.14;78.79;100607.00;7397282;19;20345;-65
2022/09/25 04:03:06;;;;;;;16.67;14.88;;;;;;;11.15;78.83;100608.75;7399287;19;20543;-65
2022/09/25 04:05:35;;;;;;;75.15;50.58;;;;;;;11.14;78.90;100611.41;7399695;19;20086;-66
2022/09/25 04:08:03;;;;;;;26.52;20.55;;;;;;;11.15;79.08;100614.00;7399130;19;20431;-65
2022/09/25 04:10:37;;;;;;;16.42;14.55;;;;;;;11.15;78.87;100608.75;7397439;19;20082;-64
2022/09/25 04:13:06;;;;;;;;;;;;;;;11.14;78.92;100612.25;7400652;19;20381;-65
2022/09/25 04:15:35;;;;;;;15.95;14.20;;;;;;;11.13;78.67;100615.78;7398363;19;19990;-64
2022/09/25 04:18:03;;;;;;;15.73;13.25;;;;;;;11.13;78.83;100617.56;7398767;19;20014;-65
2022/09/25 04:20:32;;;;;;;14.85;13.35;;;;;;;11.12;78.79;100613.22;7397115;19;20074;-65
2022/09/25 04:23:00;;;;;;;14.45;12.93;;;;;;;11.12;78.77;100619.34;7399056;19;20074;-65
2022/09/25 04:25:29;;;;;;;15.50;13.55;;;;;;;11.12;78.84;100619.34;7396900;19;20086;-65
2022/09/25 04:28:00;;;;;;;15.10;12.98;;;;;;;11.12;78.91;100616.72;7398921;19;20037;-65
2022/09/25 04:30:30;;;;;;;16.52;13.20;;;;;;;11.11;78.95;100616.72;7397103;19;20082;-65
2022/09/25 04:35:39;;;;;;;15.48;13.63;;;;;;;11.11;79.19;100616.72;7398225;19;20006;-64
2022/09/25 04:38:08;;;;;;;16.17;13.48;;;;;;;11.11;78.97;100616.72;7398833;19;20031;-65
2022/09/25 04:40:37;;;;;;;15.13;13.48;;;;;;;11.13;79.01;100618.41;7396563;19;20026;-65
2022/09/25 04:43:08;;;;;;;14.73;13.18;;;;;;;11.11;79.00;100624.59;7397953;19;20066;-65
2022/09/25 04:45:38;;;;;;;15.32;13.23;;;;;;;11.11;79.02;100630.75;7396591;19;20029;-64
2022/09/25 04:48:07;;;;;;;14.13;12.60;;;;;;;11.11;79.07;100625.47;7395826;19;20019;-64
2022/09/25 04:50:36;;;;;;;15.05;13.55;;;;;;;11.10;79.03;100629.00;7394908;19;20082;-64
2022/09/25 04:53:04;;;;;;;16.17;13.93;;;;;;;11.12;79.20;100634.22;7398106;19;20082;-65
2022/09/25 04:55:33;;;;;;;15.90;13.10;;;;;;;11.10;79.16;100630.78;7397331;19;20077;-64
2022/09/25 04:58:02;;;;;;;14.20;12.80;;;;;;;11.08;79.13;100636.03;7395956;19;20086;-64
2022/09/25 05:00:35;;;;;;;14.35;12.85;;;;;;;11.06;79.23;100630.84;7395769;19;20094;-65
2022/09/25 05:03:05;;;;;;;13.88;12.48;;;;;;;11.05;79.13;100631.75;7397931;19;20015;-65
2022/09/25 05:05:34;;;;;;;14.82;13.40;;;;;;;11.02;79.40;100639.72;7395408;19;20496;-66
2022/09/25 05:08:04;;;;;;;14.32;12.82;;;;;;;11.02;79.33;100638.81;7395367;19;20014;-66
2022/09/25 05:10:35;;;;;;;13.98;12.57;;;;;;;11.01;79.42;100640.59;7395829;19;20036;-65
2022/09/25 05:13:05;;;;;;;15.70;13.15;;;;;;;10.99;79.54;100647.66;7395240;19;20518;-67
2022/09/25 05:15:36;;;;;;;14.90;13.18;;;;;;;10.99;79.75;100649.41;7397140;19;20089;-65
2022/09/25 05:18:07;;;;;;;16.05;13.70;;;;;;;10.97;79.68;100651.22;7396863;19;20074;-65
2022/09/25 05:20:37;;;;;;;14.80;13.23;;;;;;;10.96;79.78;100644.25;7395664;19;20026;-66
2022/09/25 05:23:06;;;;;;;15.25;13.73;;;;;;;10.95;80.08;100642.53;7395827;19;20037;-65
2022/09/25 05:25:34;;;;;;;15.98;14.30;;;;;;;10.94;80.04;100646.06;7395283;19;20074;-65
2022/09/25 05:28:03;;;;;;;16.38;14.55;;;;;;;10.92;80.13;100653.97;7394804;19;20031;-66
2022/09/25 05:30:36;;;;;;;15.80;14.18;;;;;;;10.90;80.05;100648.72;7394882;19;20536;-65
2022/09/25 05:33:04;;;;;;;16.80;13.77;;;;;;;10.90;80.14;100653.97;7396314;19;20488;-65
2022/09/25 05:35:35;;;;;;;15.25;13.75;;;;;;;10.90;80.31;100651.34;7396101;19;20086;-65
2022/09/25 05:38:05;;;;;;;14.77;13.27;;;;;;;10.89;80.24;100649.66;7395265;19;20056;-65
2022/09/25 05:40:34;;;;;;;15.25;13.75;;;;;;;10.91;80.43;100647.00;7394269;19;20027;-65
2022/09/25 05:43:04;;;;;;;15.10;13.52;;;;;;;10.89;80.49;100652.28;7394537;19;20544;-65
2022/09/25 05:45:36;;;;;;;15.80;14.20;;;;;;;10.91;80.44;100654.88;7395204;19;20021;-65
2022/09/25 05:48:06;;;;;;;14.35;12.95;;;;;;;10.91;80.52;100647.00;7396402;19;20019;-65
2022/09/25 05:50:36;;;;;;;15.85;14.25;;;;;;;10.92;80.47;100649.56;7394153;19;20417;-65
2022/09/25 05:53:06;;;;;;;15.95;14.35;;;;;;;10.94;80.47;100649.53;7396017;19;20018;-65
2022/09/25 05:55:34;;;;;;;15.95;14.45;;;;;;;10.95;80.55;100645.16;7396138;19;20039;-65
2022/09/25 05:58:03;;;;;;;16.20;14.68;;;;;;;10.96;80.56;100650.34;7395635;19;20085;-65
2022/09/25 06:00:33;;;;;;;20.02;14.43;;;;;;;10.99;80.49;100650.25;7394083;19;20499;-66
2022/09/25 06:03:04;;;;;;;16.83;15.15;;;;;;;11.02;80.45;100646.69;7391787;19;20023;-66
2022/09/25 06:05:32;;;;;;;16.80;15.10;;;;;;;11.04;80.36;100650.16;7396288;19;20025;-66
2022/09/25 06:08:01;;;;;;;18.67;16.00;;;;;;;11.08;80.36;100649.19;7395688;19;20031;-66
2022/09/25 06:10:30;;;;;;;18.33;15.82;;;;;;;11.08;80.50;100647.44;7393740;19;20074;-66
2022/09/25 06:13:00;;;;;;;17.33;15.70;;;;;;;11.10;80.53;100650.00;7395520;19;20021;-64
2022/09/25 06:15:28;;;;;;;20.48;18.13;;;;;;;11.11;80.55;100651.75;7393617;19;20025;-64
2022/09/25 06:17:57;;;;;;;20.48;18.33;;;;;;;11.14;80.57;100662.16;7395369;19;20086;-65
2022/09/25 06:20:29;;;;;;;18.55;16.75;;;;;;;11.15;80.74;100658.63;7393520;19;20027;-64
2022/09/25 06:22:59;;;;;;;16.83;15.30;;;;;;;11.19;80.69;100652.38;7394877;19;20537;-64
2022/09/25 06:25:31;;;;;;;18.23;16.33;;;;;;;11.21;80.99;100653.22;7395586;19;20038;-64
2022/09/25 06:28:01;;;;;;;21.17;17.65;;;;;;;11.24;81.05;100654.91;7392768;19;20011;-65
2022/09/25 06:30:33;;;;;;;19.35;17.35;;;;;;;11.25;81.12;100649.59;7393432;19;20095;-64
2022/09/25 06:33:02;;;;;;;18.90;17.05;;;;;;;11.28;81.20;100646.03;7395371;19;20022;-64
2022/09/25 06:35:33;;;;;;;20.00;17.98;;;;;;;11.31;81.22;100645.09;7394516;19;20078;-64
2022/09/25 06:38:03;;;;;;;20.05;17.63;;;;;;;11.33;81.16;100640.69;7394390;19;20438;-64
2022/09/25 06:40:33;;;;;;;21.30;18.42;;;;;;;11.35;81.17;100636.25;7391878;19;20081;-64
2022/09/25 06:43:02;;;;;;;20.17;18.08;;;;;;;11.35;81.28;100636.25;7392262;19;20015;-63
2022/09/25 06:45:33;;;;;;;23.40;18.92;;;;;;;11.38;81.24;100636.16;7393825;19;20090;-65
2022/09/25 06:48:07;;;;;;;19.85;18.00;;;;;;;11.41;81.48;100636.06;7392954;19;20083;-65
2022/09/25 06:50:44;;;;;;;20.73;18.52;;;;;;;11.44;81.34;100635.13;7392081;19;20415;-65
2022/09/25 06:53:13;;;;;;;21.55;18.67;;;;;;;11.49;81.48;100636.72;7392855;19;20082;-65
2022/09/25 06:55:42;;;;;;;21.40;19.20;;;;;;;11.52;81.37;100634.00;7393617;19;20078;-65
2022/09/25 06:58:14;;;;;;;21.52;18.40;;;;;;;11.56;81.43;100640.91;7391776;19;20011;-64
2022/09/25 07:00:43;;;;;;;23.33;19.58;;;;;;;11.62;81.49;100642.50;7391620;19;20078;-64
2022/09/25 07:05:55;;;;;;;22.90;20.52;;;;;;;11.70;81.39;100634.41;7394250;19;20013;-65
2022/09/25 07:08:24;;;;;;;23.05;20.85;;;;;;;11.73;81.27;100635.19;7393633;19;20070;-65
2022/09/25 07:10:54;;;;;;;20.30;18.17;;;;;;;11.78;81.30;100644.69;7391814;19;20022;-65
2022/09/25 07:13:26;;;;;;;23.40;20.05;;;;;;;11.81;81.05;100631.47;7394265;19;20082;-66
2022/09/25 07:15:55;;;;;;;20.65;18.48;;;;;;;11.86;80.95;100638.31;7400628;19;20014;-64
2022/09/25 07:18:25;;;;;;;20.08;18.08;;;;;;;11.90;80.88;100636.47;7398154;19;20501;-63
2022/09/25 07:21:01;;;;;;;21.38;19.13;;;;;;;11.95;80.61;100646.84;7398391;19;20019;-64
2022/09/25 07:23:32;;;;;;;20.33;18.20;;;;;;;11.98;80.90;100642.41;7398190;19;20018;-64
2022/09/25 07:26:08;;;;;;;18.23;16.42;;;;;;;12.04;80.71;100638.72;7398702;19;20044;-64
2022/09/25 07:28:37;;;;;;;19.05;17.10;;;;;;;12.10;80.83;100641.16;7400819;19;20018;-65
2022/09/25 07:31:16;;;;;;;19.42;17.55;;;;;;;12.15;80.80;100638.41;7400493;19;20082;-65
2022/09/25 07:33:45;;;;;;;20.55;18.42;;;;;;;12.21;80.87;100639.09;7401156;19;20019;-65
2022/09/25 07:36:18;;;;;;;21.50;17.90;;;;;;;12.26;80.91;100635.44;7398015;19;20019;-65
2022/09/25 07:38:50;;;;;;;18.45;16.40;;;;;;;12.31;80.57;100634.41;7399626;19;20388;-65
2022/09/25 07:41:21;;;;;;;56.92;39.45;;;;;;;12.38;80.31;100637.69;7397878;19;20419;-65
2022/09/25 07:43:52;;;;;;;24.75;21.67;;;;;;;12.42;79.97;100631.44;7398052;19;20022;-65
2022/09/25 07:46:21;;;;;;;24.25;20.83;;;;;;;12.49;79.82;100632.13;7398111;19;20039;-65
2022/09/25 07:48:50;;;;;;;19.35;17.45;;;;;;;12.57;79.76;100631.88;7398962;19;20034;-64
2022/09/25 07:51:28;;;;;;;19.83;17.77;;;;;;;12.63;79.53;100634.31;7397682;19;20084;-64
2022/09/25 07:53:57;;;;;;;18.45;16.55;;;;;;;12.70;79.11;100625.28;7397423;19;20018;-65
2022/09/25 07:56:26;;;;;;;20.08;18.10;;;;;;;12.77;78.99;100625.97;7398749;19;20548;-65
2022/09/25 07:58:55;;;;;;;18.90;17.10;;;;;;;12.85;78.83;100630.06;7396963;19;20492;-65
2022/09/25 08:01:23;;;;;;;17.85;16.05;;;;;;;12.93;78.53;100632.44;7397415;19;20082;-65
2022/09/25 08:03:52;;;;;;;19.05;17.00;;;;;;;13.00;78.27;100635.72;7399226;19;20509;-65
2022/09/25 08:06:23;;;;;;;19.52;17.42;;;;;;;13.07;78.06;100629.34;7396944;19;20015;-65
2022/09/25 08:08:52;;;;;;;18.88;16.95;;;;;;;13.13;77.93;100630.91;7399427;19;20074;-65
2022/09/25 08:11:22;;;;;;;18.08;16.08;;;;;;;13.20;77.60;100629.78;7399462;19;20082;-65
2022/09/25 08:13:50;;;;;;;16.75;15.15;;;;;;;13.27;77.59;100635.69;7396570;19;20036;-65
2022/09/25 08:16:21;;;;;;;17.75;15.93;;;;;;;13.31;77.31;100638.19;7397157;19;20086;-64
2022/09/25 08:18:50;;;;;;;17.08;15.00;;;;;;;13.36;77.23;100630.97;7398338;19;20405;-64
2022/09/25 08:21:20;;;;;;;15.65;14.05;;;;;;;13.42;77.27;100624.66;7396149;19;20032;-64
2022/09/25 08:23:55;;;;;;;15.23;13.80;;;;;;;13.48;77.06;100631.47;7398337;19;20082;-65
2022/09/25 08:26:27;;;;;;;16.55;14.88;;;;;;;13.51;76.88;100624.31;7396984;19;20035;-64
2022/09/25 08:28:56;;;;;;;15.20;13.70;;;;;;;13.54;76.73;100623.34;7397126;19;20022;-65
2022/09/25 08:31:25;;;;;;;17.20;15.20;;;;;;;13.58;76.39;100624.97;7396753;19;20085;-64
2022/09/25 08:33:53;;;;;;;19.40;15.77;;;;;;;13.63;76.14;100623.00;7396323;19;20082;-64
2022/09/25 08:36:22;;;;;;;16.88;14.20;;;;;;;13.68;76.13;100628.13;7398202;19;20152;-65
2022/09/25 08:38:54;;;;;;;16.30;14.70;;;;;;;13.72;76.01;100619.19;7395612;19;20011;-65
2022/09/25 08:41:26;;;;;;;18.83;15.10;;;;;;;13.77;75.84;100614.59;7397365;19;20369;-65
2022/09/25 08:44:02;;;;;;;16.20;14.60;;;;;;;13.83;75.72;100619.66;7395986;19;20481;-65
2022/09/25 08:49:25;;;;;;;15.32;13.82;;;;;;;13.91;75.50;100616.72;7397098;19;20018;-64
2022/09/25 08:52:00;;;;;;;17.05;14.15;;;;;;;13.95;75.40;100617.47;7395610;19;20025;-65
2022/09/25 08:54:35;;;;;;;15.63;14.05;;;;;;;13.99;75.22;100624.38;7396401;19;20036;-66
2022/09/25 08:57:11;;;;;;;16.67;14.95;;;;;;;14.03;75.31;100618.03;7395587;19;20011;-64
2022/09/25 08:59:46;;;;;;;16.33;14.60;;;;;;;14.08;75.33;100620.47;7395985;19;20022;-64
2022/09/25 09:02:18;;;;;;;15.85;14.20;;;;;;;14.11;75.13;100623.03;7397978;19;20036;-64
2022/09/25 09:04:50;;;;;;;16.17;14.57;;;;;;;14.16;75.09;100626.34;7397950;19;20087;-65
2022/09/25 09:07:24;;;;;;;17.08;15.18;;;;;;;14.20;74.96;100627.94;7397208;19;20488;-65
2022/09/25 09:10:02;;;;;;;17.25;15.10;;;;;;;14.28;74.72;100630.28;7395532;19;20070;-65
2022/09/25 09:12:39;;;;;;;15.50;13.90;;;;;;;14.38;74.50;100629.03;7396909;19;20083;-64
2022/09/25 09:15:20;;;;;;;15.23;13.73;;;;;;;14.50;74.55;100619.75;7396537;19;20090;-65
2022/09/25 09:17:48;;;;;;;13.60;12.30;;;;;;;14.63;73.96;100614.81;7395224;19;20023;-64
2022/09/25 09:20:20;;;;;;;13.75;12.32;;;;;;;14.75;73.41;100611.72;7394397;19;20419;-65
2022/09/25 09:22:52;;;;;;;18.02;13.60;;;;;;;14.90;72.91;100611.97;7397526;19;20011;-64
2022/09/25 09:25:38;;;;;;;14.30;12.80;;;;;;;15.06;72.41;100609.56;7395958;19;20015;-64
2022/09/25 09:28:23;;;;;;;14.60;13.07;;;;;;;15.21;72.63;100611.53;7395283;19;20035;-65
2022/09/25 09:31:00;;;;;;;13.32;12.02;;;;;;;15.36;71.81;100598.59;7395046;19;20070;-64
2022/09/25 09:33:41;;;;;;;12.48;11.20;;;;;;;15.48;71.30;100593.63;7396427;19;20073;-64
2022/09/25 09:36:17;;;;;;;14.35;11.57;;;;;;;15.56;70.80;100595.91;7395668;19;20093;-66
2022/09/25 09:38:54;;;;;;;13.27;10.90;;;;;;;15.63;69.93;100594.72;7392979;19;20015;-65
2022/09/25 09:41:37;;;;;;;28.60;22.20;;;;;;;15.70;69.46;100590.00;7396230;19;20031;-65
2022/09/25 09:44:27;;;;;;;14.55;10.88;;;;;;;15.77;69.38;100596.75;7395901;19;20365;-65
2022/09/25 09:47:06;;;;;;;13.18;11.25;;;;;;;15.82;69.12;100593.88;7396213;19;20014;-65
2022/09/25 09:49:39;;;;;;;21.67;15.43;;;;;;;15.87;68.71;100593.69;7395686;19;20102;-65
2022/09/25 09:52:15;;;;;;;16.60;12.38;;;;;;;15.90;68.51;100588.28;7394666;19;20428;-65
2022/09/25 09:54:48;;;;;;;12.18;10.68;;;;;;;15.98;68.18;100587.91;7396567;19;20022;-65
2022/09/25 09:57:24;;;;;;;15.82;11.00;;;;;;;16.02;67.23;100587.66;7394944;19;20422;-66
2022/09/25 09:59:57;;;;;;;11.05;9.85;;;;;;;16.08;67.12;100587.38;7394703;19;20434;-66
2022/09/25 10:02:33;;;;;;;12.00;10.30;;;;;;;16.16;66.59;100580.88;7396290;19;20082;-67
2022/09/25 10:05:06;;;;;;;13.70;12.20;;;;;;;16.21;66.78;100577.06;7393818;19;20418;-69
2022/09/25 10:07:38;;;;;;;11.35;10.23;;;;;;;16.27;66.32;100574.13;7396033;19;20014;-66
2022/09/25 10:10:14;;;;;;;14.95;12.55;;;;;;;16.36;66.33;100556.94;7394647;19;20070;-66
2022/09/25 10:12:50;;;;;;;18.85;14.43;;;;;;;16.44;65.97;100565.38;7395994;19;20026;-64
2022/09/25 10:15:28;;;;;;;10.13;9.13;;;;;;;16.51;63.20;100563.28;7395698;19;20032;-69
2022/09/25 10:17:57;;;;;;;10.18;8.73;;;;;;;16.57;64.54;100564.78;7394276;19;20074;-68
2022/09/25 10:20:28;;;;;;;10.13;9.13;;;;;;;16.60;64.27;100567.25;7393772;19;20082;-66
2022/09/25 10:22:58;;;;;;;11.70;9.45;;;;;;;16.64;64.12;100565.31;7395553;19;20090;-67
2022/09/25 10:25:40;;;;;;;9.63;8.45;;;;;;;16.69;63.69;100560.66;7394956;19;20090;-66
2022/09/25 10:28:28;;;;;;;10.02;9.02;;;;;;;16.71;63.28;100558.78;7395360;19;20018;-66
2022/09/25 10:30:57;;;;;;;9.70;8.43;;;;;;;16.71;63.59;100557.00;7394591;19;20082;-67
2022/09/25 10:33:27;;;;;;;13.55;9.60;;;;;;;16.73;63.75;100559.56;7394251;19;20022;-67
2022/09/25 10:35:56;;;;;;;10.15;9.25;;;;;;;16.74;63.39;100562.16;7394777;19;20019;-67
2022/09/25 10:38:32;;;;;;;11.80;10.20;;;;;;;16.74;62.73;100563.91;7393049;19;20484;-67
2022/09/25 10:41:04;;;;;;;11.45;9.30;;;;;;;16.74;63.23;100566.56;7392303;19;20362;-68
2022/09/25 10:43:36;;;;;;;10.40;9.30;;;;;;;16.74;62.70;100561.28;7393243;19;20018;-67
2022/09/25 10:46:10;;;;;;;10.65;9.27;;;;;;;16.76;62.36;100559.41;7394561;19;20023;-66
2022/09/25 10:51:22;;;;;;;18.65;15.05;;;;;;;16.86;62.60;100565.13;7402265;19;20405;-65
2022/09/25 10:53:52;;;;;;;12.63;11.25;;;;;;;16.92;61.90;100567.44;7402115;19;20152;-65
2022/09/25 10:56:25;;;;;;;12.07;10.10;;;;;;;16.98;61.80;100556.53;7398986;19;20090;-65
2022/09/25 10:59:00;;;;;;;;;;;;;;;17.05;61.46;100551.81;7399961;19;20019;-66
2022/09/25 11:01:34;;;;;;;9.85;8.85;;;;;;;17.12;61.82;100550.53;7399371;19;19922;-66
2022/09/25 11:04:08;;;;;;;11.43;9.52;;;;;;;17.20;61.25;100551.00;7398333;19;20019;-67
2022/09/25 11:06:38;;;;;;;22.35;16.75;;;;;;;17.30;61.34;100551.38;7401579;19;20441;-69
2022/09/25 11:09:10;;;;;;;25.05;18.70;;;;;;;17.38;60.58;100549.16;7398514;19;20022;-66
2022/09/25 11:11:40;;;;;;;15.02;13.23;;;;;;;17.49;60.68;100550.38;7400151;19;20019;-65
2022/09/25 11:14:21;;;;;;;10.77;9.77;;;;;;;17.62;60.16;100545.28;7401669;19;20023;-66
2022/09/25 11:16:54;;;;;;;12.68;11.15;;;;;;;17.76;60.04;100542.72;7400909;19;20021;-67
2022/09/25 11:19:30;;;;;;;10.52;8.50;;;;;;;17.91;59.37;100533.06;7400926;19;20083;-66
2022/09/25 11:22:06;;;;;;;15.32;12.32;;;;;;;18.05;59.03;100535.81;7400911;19;20454;-65
2022/09/25 11:24:49;;;;;;;9.85;8.80;;;;;;;18.20;58.31;100533.25;7401503;19;20021;-65
2022/09/25 11:27:24;;;;;;;8.70;7.80;;;;;;;18.32;58.09;100540.47;7401276;19;20010;-66
2022/09/25 11:30:04;;;;;;;8.82;7.50;;;;;;;18.45;58.14;100530.03;7399573;19;20019;-66
2022/09/25 11:32:41;;;;;;;8.93;7.70;;;;;;;18.58;57.69;100532.81;7401253;19;20014;-66
2022/09/25 11:35:43;;;;;;;9.13;7.07;;;;;;;18.73;56.97;100531.06;7398386;19;20011;-66
2022/09/25 11:41:10;;;;;;;7.28;6.10;;;;;;;18.84;56.75;100525.09;7398364;19;20018;-67
2022/09/25 11:41:21;;;;;;;7.68;6.90;;;;;;;18.93;55.79;100523.72;7400037;19;20021;-66
2022/09/25 11:43:59;;;;;;;7.68;6.82;;;;;;;18.97;54.83;100520.78;7400582;19;20011;-66
2022/09/25 11:46:40;;;;;;;6.68;5.97;;;;;;;19.01;55.21;100527.63;7397622;19;20040;-64
2022/09/25 11:49:18;;;;;;;7.13;6.25;;;;;;;19.03;54.85;100517.75;7399653;19;20022;-66
2022/09/25 11:52:22;;;;;;;9.63;8.50;;;;;;;19.08;54.65;100516.59;7397522;19;20086;-65
2022/09/25 11:55:14;;;;;;;5.95;5.45;;;;;;;19.11;54.55;100511.97;7396943;19;20055;-66
2022/09/25 11:57:54;;;;;;;6.72;5.40;;;;;;;19.14;54.78;100514.41;7398127;19;20019;-66